sensor_id;sensor_type;location;lat;lon;timestamp;temperature;humidity
25192;DHT22;13143;50.924;5.320;2023-08-01T00:00:08;18.90;99.90
25192;DHT22;13143;50.924;5.320;2023-08-01T00:02:34;19.00;99.90
25192;DHT22;13143;50.924;5.320;2023-08-01T00:05:01;18.90;99.90
25192;DHT22;13143;50.924;5.320;2023-08-01T00:07:28;18.90;99.90
25192;DHT22;13143;50.924;5.320;2023-08-01T00:09:54;18.90;99.90
25192;DHT22;13143;50.924;5.320;2023-08-01T00:12:20;18.90;99.90
25192;DHT22;13143;50.924;5.320;2023-08-01T00:14:47;18.90;99.90
25192;DHT22;13143;50.924;5.320;2023-08-01T00:17:13;18.90;99.90
25192;DHT22;13143;50.924;5.320;2023-08-01T00:19:39;18.90;99.90
25192;DHT22;13143;50.924;5.320;2023-08-01T00:22:05;18.90;99.90
25192;DHT22;13143;50.924;5.320;2023-08-01T00:24:32;18.90;99.90
25192;DHT22;13143;50.924;5.320;2023-08-01T00:26:58;18.90;99.90
25192;DHT22;13143;50.924;5.320;2023-08-01T00:29:24;18.90;99.90
25192;DHT22;13143;50.924;5.320;2023-08-01T00:31:50;18.90;99.90
25192;DHT22;13143;50.924;5.320;2023-08-01T00:34:16;18.90;99.90
25192;DHT22;13143;50.924;5.320;2023-08-01T00:36:42;18.80;99.90
25192;DHT22;13143;50.924;5.320;2023-08-01T00:39:08;18.80;99.90
25192;DHT22;13143;50.924;5.320;2023-08-01T00:41:35;18.80;99.90
25192;DHT22;13143;50.924;5.320;2023-08-01T00:44:01;18.80;99.90
25192;DHT22;13143;50.924;5.320;2023-08-01T00:46:27;18.80;99.90
25192;DHT22;13143;50.924;5.320;2023-08-01T00:48:54;18.80;99.90
25192;DHT22;13143;50.924;5.320;2023-08-01T00:51:24;18.80;99.90
25192;DHT22;13143;50.924;5.320;2023-08-01T00:53:51;18.80;99.90
25192;DHT22;13143;50.924;5.320;2023-08-01T00:56:18;18.70;99.90
25192;DHT22;13143;50.924;5.320;2023-08-01T00:58:44;18.70;99.90
25192;DHT22;13143;50.924;5.320;2023-08-01T01:01:11;18.70;99.90
25192;DHT22;13143;50.924;5.320;2023-08-01T01:03:37;18.70;99.90
25192;DHT22;13143;50.924;5.320;2023-08-01T01:06:16;18.70;99.90
25192;DHT22;13143;50.924;5.320;2023-08-01T01:08:44;18.70;99.90
25192;DHT22;13143;50.924;5.320;2023-08-01T01:11:11;18.70;99.90
25192;DHT22;13143;50.924;5.320;2023-08-01T01:13:37;18.70;99.90
25192;DHT22;13143;50.924;5.320;2023-08-01T01:16:03;18.70;99.90
25192;DHT22;13143;50.924;5.320;2023-08-01T01:18:29;18.70;99.90
25192;DHT22;13143;50.924;5.320;2023-08-01T01:20:56;18.60;99.90
25192;DHT22;13143;50.924;5.320;2023-08-01T01:23:22;18.60;99.90
25192;DHT22;13143;50.924;5.320;2023-08-01T01:25:49;18.60;99.90
25192;DHT22;13143;50.924;5.320;2023-08-01T01:28:17;18.60;99.90
25192;DHT22;13143;50.924;5.320;2023-08-01T01:30:45;18.60;99.90
25192;DHT22;13143;50.924;5.320;2023-08-01T01:33:11;18.60;99.90
25192;DHT22;13143;50.924;5.320;2023-08-01T01:35:38;18.50;99.90
25192;DHT22;13143;50.924;5.320;2023-08-01T01:38:04;18.50;99.90
25192;DHT22;13143;50.924;5.320;2023-08-01T01:40:31;18.50;99.90
25192;DHT22;13143;50.924;5.320;2023-08-01T01:42:58;18.50;99.90
25192;DHT22;13143;50.924;5.320;2023-08-01T01:45:24;18.50;99.90
25192;DHT22;13143;50.924;5.320;2023-08-01T01:47:50;18.50;99.90
25192;DHT22;13143;50.924;5.320;2023-08-01T01:50:16;18.50;99.90
25192;DHT22;13143;50.924;5.320;2023-08-01T01:52:44;18.50;99.90
25192;DHT22;13143;50.924;5.320;2023-08-01T01:55:10;18.50;99.90
25192;DHT22;13143;50.924;5.320;2023-08-01T01:57:36;18.50;99.90
25192;DHT22;13143;50.924;5.320;2023-08-01T02:00:04;18.40;99.90
25192;DHT22;13143;50.924;5.320;2023-08-01T02:02:30;18.40;99.90
25192;DHT22;13143;50.924;5.320;2023-08-01T02:04:56;18.40;99.90
25192;DHT22;13143;50.924;5.320;2023-08-01T02:07:23;18.40;99.90
25192;DHT22;13143;50.924;5.320;2023-08-01T02:09:49;18.40;99.90
25192;DHT22;13143;50.924;5.320;2023-08-01T02:12:15;18.40;99.90
25192;DHT22;13143;50.924;5.320;2023-08-01T02:14:41;18.40;99.90
25192;DHT22;13143;50.924;5.320;2023-08-01T02:17:08;18.40;99.90
25192;DHT22;13143;50.924;5.320;2023-08-01T02:19:34;18.40;99.90
25192;DHT22;13143;50.924;5.320;2023-08-01T02:22:00;18.30;99.90
25192;DHT22;13143;50.924;5.320;2023-08-01T02:24:27;18.30;99.90
25192;DHT22;13143;50.924;5.320;2023-08-01T02:26:53;18.30;99.90
25192;DHT22;13143;50.924;5.320;2023-08-01T02:29:19;18.30;99.90
25192;DHT22;13143;50.924;5.320;2023-08-01T02:31:45;18.30;99.90
25192;DHT22;13143;50.924;5.320;2023-08-01T02:34:11;18.30;99.90
25192;DHT22;13143;50.924;5.320;2023-08-01T02:36:37;18.30;99.90
25192;DHT22;13143;50.924;5.320;2023-08-01T02:39:06;18.20;99.90
25192;DHT22;13143;50.924;5.320;2023-08-01T02:41:32;18.20;99.90
25192;DHT22;13143;50.924;5.320;2023-08-01T02:43:59;18.20;99.90
25192;DHT22;13143;50.924;5.320;2023-08-01T02:46:25;18.20;99.90
25192;DHT22;13143;50.924;5.320;2023-08-01T02:48:54;18.20;99.90
25192;DHT22;13143;50.924;5.320;2023-08-01T02:51:20;18.20;99.90
25192;DHT22;13143;50.924;5.320;2023-08-01T02:53:46;18.20;99.90
25192;DHT22;13143;50.924;5.320;2023-08-01T02:56:12;18.20;99.90
25192;DHT22;13143;50.924;5.320;2023-08-01T02:58:38;18.10;99.90
25192;DHT22;13143;50.924;5.320;2023-08-01T03:01:08;18.10;99.90
25192;DHT22;13143;50.924;5.320;2023-08-01T03:03:39;18.10;99.90
25192;DHT22;13143;50.924;5.320;2023-08-01T03:06:05;18.10;99.90
25192;DHT22;13143;50.924;5.320;2023-08-01T03:08:31;18.10;99.90
25192;DHT22;13143;50.924;5.320;2023-08-01T03:10:58;18.10;99.90
25192;DHT22;13143;50.924;5.320;2023-08-01T03:13:24;18.10;99.90
25192;DHT22;13143;50.924;5.320;2023-08-01T03:15:50;18.10;99.90
25192;DHT22;13143;50.924;5.320;2023-08-01T03:18:16;18.10;99.90
25192;DHT22;13143;50.924;5.320;2023-08-01T03:20:42;18.00;99.90
25192;DHT22;13143;50.924;5.320;2023-08-01T03:23:08;18.00;99.90
25192;DHT22;13143;50.924;5.320;2023-08-01T03:25:34;18.00;99.90
25192;DHT22;13143;50.924;5.320;2023-08-01T03:28:00;18.00;99.90
25192;DHT22;13143;50.924;5.320;2023-08-01T03:30:27;18.00;99.90
25192;DHT22;13143;50.924;5.320;2023-08-01T03:32:53;18.00;99.90
25192;DHT22;13143;50.924;5.320;2023-08-01T03:35:19;18.00;99.90
25192;DHT22;13143;50.924;5.320;2023-08-01T03:37:45;18.00;99.90
25192;DHT22;13143;50.924;5.320;2023-08-01T03:40:11;18.00;99.90
25192;DHT22;13143;50.924;5.320;2023-08-01T03:42:37;18.00;99.90
25192;DHT22;13143;50.924;5.320;2023-08-01T03:45:04;18.00;99.90
25192;DHT22;13143;50.924;5.320;2023-08-01T03:47:31;17.90;99.90
25192;DHT22;13143;50.924;5.320;2023-08-01T03:49:57;17.90;99.90
25192;DHT22;13143;50.924;5.320;2023-08-01T03:52:24;17.90;99.90
25192;DHT22;13143;50.924;5.320;2023-08-01T03:54:54;17.90;99.90
25192;DHT22;13143;50.924;5.320;2023-08-01T03:57:20;17.90;99.90
25192;DHT22;13143;50.924;5.320;2023-08-01T03:59:46;17.90;99.90
25192;DHT22;13143;50.924;5.320;2023-08-01T04:02:12;17.90;99.90
25192;DHT22;13143;50.924;5.320;2023-08-01T04:04:38;17.90;99.90
25192;DHT22;13143;50.924;5.320;2023-08-01T04:07:05;17.90;99.90
25192;DHT22;13143;50.924;5.320;2023-08-01T04:09:31;17.80;99.90
25192;DHT22;13143;50.924;5.320;2023-08-01T04:11:57;17.80;99.90
25192;DHT22;13143;50.924;5.320;2023-08-01T04:14:23;17.80;99.90
25192;DHT22;13143;50.924;5.320;2023-08-01T04:16:49;17.80;99.90
25192;DHT22;13143;50.924;5.320;2023-08-01T04:19:15;17.80;99.90
25192;DHT22;13143;50.924;5.320;2023-08-01T04:21:41;17.80;99.90
25192;DHT22;13143;50.924;5.320;2023-08-01T04:24:08;17.80;99.90
25192;DHT22;13143;50.924;5.320;2023-08-01T04:26:34;17.80;99.90
25192;DHT22;13143;50.924;5.320;2023-08-01T04:29:00;17.80;99.90
25192;DHT22;13143;50.924;5.320;2023-08-01T04:31:26;17.80;99.90
25192;DHT22;13143;50.924;5.320;2023-08-01T04:33:52;17.80;99.90
25192;DHT22;13143;50.924;5.320;2023-08-01T04:36:18;17.80;99.90
25192;DHT22;13143;50.924;5.320;2023-08-01T04:38:44;17.70;99.90
25192;DHT22;13143;50.924;5.320;2023-08-01T04:41:10;17.70;99.90
25192;DHT22;13143;50.924;5.320;2023-08-01T04:43:37;17.70;99.90
25192;DHT22;13143;50.924;5.320;2023-08-01T04:46:03;17.70;99.90
25192;DHT22;13143;50.924;5.320;2023-08-01T04:48:29;17.70;99.90
25192;DHT22;13143;50.924;5.320;2023-08-01T04:50:55;17.70;99.90
25192;DHT22;13143;50.924;5.320;2023-08-01T04:53:21;17.70;99.90
25192;DHT22;13143;50.924;5.320;2023-08-01T04:55:47;17.70;99.90
25192;DHT22;13143;50.924;5.320;2023-08-01T04:58:13;17.70;99.90
25192;DHT22;13143;50.924;5.320;2023-08-01T05:00:42;17.70;99.90
25192;DHT22;13143;50.924;5.320;2023-08-01T05:03:08;17.70;99.90
25192;DHT22;13143;50.924;5.320;2023-08-01T05:05:34;17.60;99.90
25192;DHT22;13143;50.924;5.320;2023-08-01T05:08:00;17.60;99.90
25192;DHT22;13143;50.924;5.320;2023-08-01T05:10:26;17.60;99.90
25192;DHT22;13143;50.924;5.320;2023-08-01T05:12:52;17.60;99.90
25192;DHT22;13143;50.924;5.320;2023-08-01T05:15:18;17.60;99.90
25192;DHT22;13143;50.924;5.320;2023-08-01T05:17:45;17.60;99.90
25192;DHT22;13143;50.924;5.320;2023-08-01T05:20:11;17.60;99.90
25192;DHT22;13143;50.924;5.320;2023-08-01T05:22:37;17.60;99.90
25192;DHT22;13143;50.924;5.320;2023-08-01T05:25:03;17.60;99.90
25192;DHT22;13143;50.924;5.320;2023-08-01T05:27:30;17.60;99.90
25192;DHT22;13143;50.924;5.320;2023-08-01T05:29:57;17.60;99.90
25192;DHT22;13143;50.924;5.320;2023-08-01T05:32:23;17.60;99.90
25192;DHT22;13143;50.924;5.320;2023-08-01T05:34:49;17.60;99.90
25192;DHT22;13143;50.924;5.320;2023-08-01T05:37:15;17.60;99.90
25192;DHT22;13143;50.924;5.320;2023-08-01T05:39:41;17.60;99.90
25192;DHT22;13143;50.924;5.320;2023-08-01T05:42:07;17.60;99.90
25192;DHT22;13143;50.924;5.320;2023-08-01T05:44:34;17.60;99.90
25192;DHT22;13143;50.924;5.320;2023-08-01T05:47:00;17.60;99.90
25192;DHT22;13143;50.924;5.320;2023-08-01T05:49:27;17.60;99.90
25192;DHT22;13143;50.924;5.320;2023-08-01T05:51:55;17.60;99.90
25192;DHT22;13143;50.924;5.320;2023-08-01T05:54:21;17.60;99.90
25192;DHT22;13143;50.924;5.320;2023-08-01T05:56:47;17.60;99.90
25192;DHT22;13143;50.924;5.320;2023-08-01T05:59:13;17.60;99.90
25192;DHT22;13143;50.924;5.320;2023-08-01T06:01:40;17.60;99.90
25192;DHT22;13143;50.924;5.320;2023-08-01T06:04:06;17.60;99.90
25192;DHT22;13143;50.924;5.320;2023-08-01T06:06:32;17.60;99.90
25192;DHT22;13143;50.924;5.320;2023-08-01T06:08:58;17.60;99.90
25192;DHT22;13143;50.924;5.320;2023-08-01T06:11:24;17.60;99.90
25192;DHT22;13143;50.924;5.320;2023-08-01T06:13:52;17.60;99.90
25192;DHT22;13143;50.924;5.320;2023-08-01T06:16:18;17.60;99.90
25192;DHT22;13143;50.924;5.320;2023-08-01T06:18:44;17.50;99.90
25192;DHT22;13143;50.924;5.320;2023-08-01T06:21:10;17.60;99.90
25192;DHT22;13143;50.924;5.320;2023-08-01T06:23:36;17.60;99.90
25192;DHT22;13143;50.924;5.320;2023-08-01T06:26:02;17.60;99.90
25192;DHT22;13143;50.924;5.320;2023-08-01T06:28:28;17.60;99.90
25192;DHT22;13143;50.924;5.320;2023-08-01T06:30:54;17.60;99.90
25192;DHT22;13143;50.924;5.320;2023-08-01T06:33:21;17.60;99.90
25192;DHT22;13143;50.924;5.320;2023-08-01T06:35:47;17.60;99.90
25192;DHT22;13143;50.924;5.320;2023-08-01T06:38:13;17.60;99.90
25192;DHT22;13143;50.924;5.320;2023-08-01T06:40:39;17.60;99.90
25192;DHT22;13143;50.924;5.320;2023-08-01T06:43:05;17.60;99.90
25192;DHT22;13143;50.924;5.320;2023-08-01T06:45:31;17.60;99.90
25192;DHT22;13143;50.924;5.320;2023-08-01T06:47:58;17.60;99.90
25192;DHT22;13143;50.924;5.320;2023-08-01T06:50:24;17.60;99.90
25192;DHT22;13143;50.924;5.320;2023-08-01T06:52:50;17.60;99.90
25192;DHT22;13143;50.924;5.320;2023-08-01T06:55:16;17.60;99.90
25192;DHT22;13143;50.924;5.320;2023-08-01T06:57:42;17.60;99.90
25192;DHT22;13143;50.924;5.320;2023-08-01T07:00:08;17.60;99.90
25192;DHT22;13143;50.924;5.320;2023-08-01T07:02:35;17.70;99.90
25192;DHT22;13143;50.924;5.320;2023-08-01T07:05:01;17.70;99.90
25192;DHT22;13143;50.924;5.320;2023-08-01T07:07:27;17.70;99.90
25192;DHT22;13143;50.924;5.320;2023-08-01T07:09:53;17.70;99.90
25192;DHT22;13143;50.924;5.320;2023-08-01T07:12:19;17.70;99.90
25192;DHT22;13143;50.924;5.320;2023-08-01T07:14:46;17.70;99.90
25192;DHT22;13143;50.924;5.320;2023-08-01T07:17:12;17.70;99.90
25192;DHT22;13143;50.924;5.320;2023-08-01T07:19:38;17.70;99.90
25192;DHT22;13143;50.924;5.320;2023-08-01T07:22:04;17.70;99.90
25192;DHT22;13143;50.924;5.320;2023-08-01T07:24:30;17.70;99.90
25192;DHT22;13143;50.924;5.320;2023-08-01T07:26:56;17.70;99.90
25192;DHT22;13143;50.924;5.320;2023-08-01T07:29:22;17.70;99.90
25192;DHT22;13143;50.924;5.320;2023-08-01T07:31:49;17.70;99.90
25192;DHT22;13143;50.924;5.320;2023-08-01T07:34:15;17.70;99.90
25192;DHT22;13143;50.924;5.320;2023-08-01T07:36:41;17.70;99.90
25192;DHT22;13143;50.924;5.320;2023-08-01T07:39:07;17.70;99.90
25192;DHT22;13143;50.924;5.320;2023-08-01T07:41:34;17.70;99.90
25192;DHT22;13143;50.924;5.320;2023-08-01T07:44:03;17.80;99.90
25192;DHT22;13143;50.924;5.320;2023-08-01T07:46:29;17.80;99.90
25192;DHT22;13143;50.924;5.320;2023-08-01T07:48:56;17.80;99.90
25192;DHT22;13143;50.924;5.320;2023-08-01T07:51:22;17.80;99.90
25192;DHT22;13143;50.924;5.320;2023-08-01T07:53:48;17.80;99.90
25192;DHT22;13143;50.924;5.320;2023-08-01T07:56:16;17.80;99.90
25192;DHT22;13143;50.924;5.320;2023-08-01T07:58:42;17.90;99.90
25192;DHT22;13143;50.924;5.320;2023-08-01T08:01:08;17.90;99.90
25192;DHT22;13143;50.924;5.320;2023-08-01T08:03:34;17.90;99.90
25192;DHT22;13143;50.924;5.320;2023-08-01T08:06:01;17.90;99.90
25192;DHT22;13143;50.924;5.320;2023-08-01T08:08:29;18.00;99.90
25192;DHT22;13143;50.924;5.320;2023-08-01T08:10:55;18.00;99.90
25192;DHT22;13143;50.924;5.320;2023-08-01T08:13:22;18.00;99.90
25192;DHT22;13143;50.924;5.320;2023-08-01T08:15:48;18.00;99.90
25192;DHT22;13143;50.924;5.320;2023-08-01T08:18:14;18.10;99.90
25192;DHT22;13143;50.924;5.320;2023-08-01T08:20:43;18.00;99.90
25192;DHT22;13143;50.924;5.320;2023-08-01T08:23:09;18.10;99.90
25192;DHT22;13143;50.924;5.320;2023-08-01T08:25:35;18.10;99.90
25192;DHT22;13143;50.924;5.320;2023-08-01T08:28:02;18.10;99.90
25192;DHT22;13143;50.924;5.320;2023-08-01T08:30:28;18.10;99.90
25192;DHT22;13143;50.924;5.320;2023-08-01T08:32:54;18.10;99.90
25192;DHT22;13143;50.924;5.320;2023-08-01T08:35:20;18.20;99.90
25192;DHT22;13143;50.924;5.320;2023-08-01T08:37:46;18.10;99.90
25192;DHT22;13143;50.924;5.320;2023-08-01T08:40:12;18.10;99.90
25192;DHT22;13143;50.924;5.320;2023-08-01T08:42:40;18.20;99.90
25192;DHT22;13143;50.924;5.320;2023-08-01T08:45:06;18.20;99.90
25192;DHT22;13143;50.924;5.320;2023-08-01T08:47:36;18.20;99.90
25192;DHT22;13143;50.924;5.320;2023-08-01T08:50:05;18.20;99.90
25192;DHT22;13143;50.924;5.320;2023-08-01T08:52:31;18.20;99.90
25192;DHT22;13143;50.924;5.320;2023-08-01T08:54:57;18.30;99.90
25192;DHT22;13143;50.924;5.320;2023-08-01T08:57:24;18.30;99.90
25192;DHT22;13143;50.924;5.320;2023-08-01T08:59:51;18.30;99.90
25192;DHT22;13143;50.924;5.320;2023-08-01T09:02:18;18.30;99.90
25192;DHT22;13143;50.924;5.320;2023-08-01T09:04:45;18.30;99.90
25192;DHT22;13143;50.924;5.320;2023-08-01T09:07:13;18.30;99.90
25192;DHT22;13143;50.924;5.320;2023-08-01T09:09:41;18.40;99.90
25192;DHT22;13143;50.924;5.320;2023-08-01T09:12:08;18.40;99.90
25192;DHT22;13143;50.924;5.320;2023-08-01T09:14:35;18.40;99.90
25192;DHT22;13143;50.924;5.320;2023-08-01T09:17:08;18.40;99.90
25192;DHT22;13143;50.924;5.320;2023-08-01T09:19:35;18.40;99.90
25192;DHT22;13143;50.924;5.320;2023-08-01T09:22:02;18.40;99.90
25192;DHT22;13143;50.924;5.320;2023-08-01T09:24:28;18.50;99.90
25192;DHT22;13143;50.924;5.320;2023-08-01T09:27:02;18.50;99.90
25192;DHT22;13143;50.924;5.320;2023-08-01T09:29:34;18.50;99.90
25192;DHT22;13143;50.924;5.320;2023-08-01T09:32:00;18.60;99.90
25192;DHT22;13143;50.924;5.320;2023-08-01T09:34:36;18.60;99.90
25192;DHT22;13143;50.924;5.320;2023-08-01T09:37:03;18.60;99.90
25192;DHT22;13143;50.924;5.320;2023-08-01T09:39:29;18.60;99.90
25192;DHT22;13143;50.924;5.320;2023-08-01T09:41:59;18.70;99.90
25192;DHT22;13143;50.924;5.320;2023-08-01T09:44:27;18.70;99.90
25192;DHT22;13143;50.924;5.320;2023-08-01T09:47:00;18.70;99.90
25192;DHT22;13143;50.924;5.320;2023-08-01T09:49:28;18.70;99.90
25192;DHT22;13143;50.924;5.320;2023-08-01T09:51:55;18.70;99.90
25192;DHT22;13143;50.924;5.320;2023-08-01T09:54:21;18.80;99.90
25192;DHT22;13143;50.924;5.320;2023-08-01T09:56:49;18.80;99.90
25192;DHT22;13143;50.924;5.320;2023-08-01T09:59:24;18.80;99.90
25192;DHT22;13143;50.924;5.320;2023-08-01T10:01:52;18.90;99.90
25192;DHT22;13143;50.924;5.320;2023-08-01T10:04:30;18.90;99.90
25192;DHT22;13143;50.924;5.320;2023-08-01T10:07:03;18.90;99.90
25192;DHT22;13143;50.924;5.320;2023-08-01T10:09:33;18.90;99.90
25192;DHT22;13143;50.924;5.320;2023-08-01T10:12:02;19.00;99.90
25192;DHT22;13143;50.924;5.320;2023-08-01T10:14:28;19.00;99.90
25192;DHT22;13143;50.924;5.320;2023-08-01T10:16:56;19.00;99.90
25192;DHT22;13143;50.924;5.320;2023-08-01T10:19:22;19.00;99.90
25192;DHT22;13143;50.924;5.320;2023-08-01T10:21:49;19.00;99.90
25192;DHT22;13143;50.924;5.320;2023-08-01T10:24:16;19.10;99.90
25192;DHT22;13143;50.924;5.320;2023-08-01T10:26:46;19.10;99.90
25192;DHT22;13143;50.924;5.320;2023-08-01T10:29:12;19.10;99.90
25192;DHT22;13143;50.924;5.320;2023-08-01T10:31:39;19.10;99.90
25192;DHT22;13143;50.924;5.320;2023-08-01T10:34:13;19.20;99.90
25192;DHT22;13143;50.924;5.320;2023-08-01T10:36:39;19.20;99.90
25192;DHT22;13143;50.924;5.320;2023-08-01T10:39:05;19.20;99.90
25192;DHT22;13143;50.924;5.320;2023-08-01T10:41:36;19.30;99.90
25192;DHT22;13143;50.924;5.320;2023-08-01T10:44:15;19.30;99.90
25192;DHT22;13143;50.924;5.320;2023-08-01T10:49:17;19.30;99.90
25192;DHT22;13143;50.924;5.320;2023-08-01T10:51:44;19.30;99.90
25192;DHT22;13143;50.924;5.320;2023-08-01T10:54:22;19.30;99.90
25192;DHT22;13143;50.924;5.320;2023-08-01T10:56:50;19.40;99.90
25192;DHT22;13143;50.924;5.320;2023-08-01T10:59:17;19.40;99.90
25192;DHT22;13143;50.924;5.320;2023-08-01T11:01:47;19.40;99.90
25192;DHT22;13143;50.924;5.320;2023-08-01T11:04:17;19.50;99.90
25192;DHT22;13143;50.924;5.320;2023-08-01T11:06:46;19.50;99.90
25192;DHT22;13143;50.924;5.320;2023-08-01T11:09:20;19.50;99.90
25192;DHT22;13143;50.924;5.320;2023-08-01T11:11:52;19.50;99.90
25192;DHT22;13143;50.924;5.320;2023-08-01T11:14:23;19.50;99.90
25192;DHT22;13143;50.924;5.320;2023-08-01T11:16:54;19.60;99.90
25192;DHT22;13143;50.924;5.320;2023-08-01T11:19:28;19.60;99.90
25192;DHT22;13143;50.924;5.320;2023-08-01T11:21:54;19.60;99.90
25192;DHT22;13143;50.924;5.320;2023-08-01T11:24:25;19.60;99.90
25192;DHT22;13143;50.924;5.320;2023-08-01T11:26:53;19.60;99.90
25192;DHT22;13143;50.924;5.320;2023-08-01T11:29:20;19.70;99.90
25192;DHT22;13143;50.924;5.320;2023-08-01T11:31:57;19.70;99.90
25192;DHT22;13143;50.924;5.320;2023-08-01T11:34:24;19.70;99.90
25192;DHT22;13143;50.924;5.320;2023-08-01T11:36:50;19.80;99.90
25192;DHT22;13143;50.924;5.320;2023-08-01T11:39:17;19.80;99.90
25192;DHT22;13143;50.924;5.320;2023-08-01T11:41:44;19.80;99.90
25192;DHT22;13143;50.924;5.320;2023-08-01T11:44:10;19.80;99.90
25192;DHT22;13143;50.924;5.320;2023-08-01T11:46:38;19.90;99.90
25192;DHT22;13143;50.924;5.320;2023-08-01T11:49:07;19.90;99.90
25192;DHT22;13143;50.924;5.320;2023-08-01T11:51:41;20.00;99.90
25192;DHT22;13143;50.924;5.320;2023-08-01T11:54:07;20.00;99.90
25192;DHT22;13143;50.924;5.320;2023-08-01T11:56:35;20.00;99.90
25192;DHT22;13143;50.924;5.320;2023-08-01T11:59:08;20.00;99.90
25192;DHT22;13143;50.924;5.320;2023-08-01T12:01:41;20.00;99.90
25192;DHT22;13143;50.924;5.320;2023-08-01T12:04:08;20.10;99.90
25192;DHT22;13143;50.924;5.320;2023-08-01T12:06:35;20.10;99.90
25192;DHT22;13143;50.924;5.320;2023-08-01T12:09:11;20.10;99.90
25192;DHT22;13143;50.924;5.320;2023-08-01T12:11:38;20.10;99.90
25192;DHT22;13143;50.924;5.320;2023-08-01T12:14:14;20.20;99.90
25192;DHT22;13143;50.924;5.320;2023-08-01T12:16:42;20.20;99.90
25192;DHT22;13143;50.924;5.320;2023-08-01T12:19:19;20.20;99.90
25192;DHT22;13143;50.924;5.320;2023-08-01T12:21:45;20.30;99.90
25192;DHT22;13143;50.924;5.320;2023-08-01T12:24:11;20.30;99.90
25192;DHT22;13143;50.924;5.320;2023-08-01T12:26:38;20.30;99.90
25192;DHT22;13143;50.924;5.320;2023-08-01T12:29:04;20.30;99.90
25192;DHT22;13143;50.924;5.320;2023-08-01T12:31:31;20.40;99.90
25192;DHT22;13143;50.924;5.320;2023-08-01T12:33:57;20.40;99.90
25192;DHT22;13143;50.924;5.320;2023-08-01T12:36:23;20.40;99.90
25192;DHT22;13143;50.924;5.320;2023-08-01T12:38:49;20.40;99.90
25192;DHT22;13143;50.924;5.320;2023-08-01T12:41:16;20.50;99.90
25192;DHT22;13143;50.924;5.320;2023-08-01T12:43:42;20.50;99.90
25192;DHT22;13143;50.924;5.320;2023-08-01T12:46:08;20.50;99.90
25192;DHT22;13143;50.924;5.320;2023-08-01T12:48:34;20.50;99.90
25192;DHT22;13143;50.924;5.320;2023-08-01T12:51:02;20.50;99.90
25192;DHT22;13143;50.924;5.320;2023-08-01T12:53:28;20.50;99.90
25192;DHT22;13143;50.924;5.320;2023-08-01T12:55:54;20.50;99.90
25192;DHT22;13143;50.924;5.320;2023-08-01T12:58:20;20.50;99.90
25192;DHT22;13143;50.924;5.320;2023-08-01T13:00:46;20.60;99.90
25192;DHT22;13143;50.924;5.320;2023-08-01T13:03:13;20.60;99.90
25192;DHT22;13143;50.924;5.320;2023-08-01T13:05:40;20.60;99.90
25192;DHT22;13143;50.924;5.320;2023-08-01T13:08:07;20.60;99.90
25192;DHT22;13143;50.924;5.320;2023-08-01T13:10:35;20.60;99.90
25192;DHT22;13143;50.924;5.320;2023-08-01T13:13:02;20.60;99.90
25192;DHT22;13143;50.924;5.320;2023-08-01T13:15:29;20.60;99.90
25192;DHT22;13143;50.924;5.320;2023-08-01T13:17:55;20.60;99.90
25192;DHT22;13143;50.924;5.320;2023-08-01T13:20:22;20.70;99.90
25192;DHT22;13143;50.924;5.320;2023-08-01T13:22:50;20.70;99.90
25192;DHT22;13143;50.924;5.320;2023-08-01T13:25:17;20.70;99.90
25192;DHT22;13143;50.924;5.320;2023-08-01T13:27:44;20.70;99.90
25192;DHT22;13143;50.924;5.320;2023-08-01T13:30:10;20.70;99.90
25192;DHT22;13143;50.924;5.320;2023-08-01T13:32:40;20.70;99.90
25192;DHT22;13143;50.924;5.320;2023-08-01T13:35:07;20.70;99.90
25192;DHT22;13143;50.924;5.320;2023-08-01T13:37:33;20.70;99.90
25192;DHT22;13143;50.924;5.320;2023-08-01T13:39:59;20.70;99.90
25192;DHT22;13143;50.924;5.320;2023-08-01T13:42:26;20.70;99.90
25192;DHT22;13143;50.924;5.320;2023-08-01T13:44:54;20.70;99.90
25192;DHT22;13143;50.924;5.320;2023-08-01T13:47:20;20.70;99.90
25192;DHT22;13143;50.924;5.320;2023-08-01T13:49:46;20.70;99.90
25192;DHT22;13143;50.924;5.320;2023-08-01T13:52:12;20.70;99.90
25192;DHT22;13143;50.924;5.320;2023-08-01T13:54:38;20.80;99.90
25192;DHT22;13143;50.924;5.320;2023-08-01T13:57:05;20.70;99.90
25192;DHT22;13143;50.924;5.320;2023-08-01T13:59:32;20.70;99.90
25192;DHT22;13143;50.924;5.320;2023-08-01T14:01:58;20.70;99.90
25192;DHT22;13143;50.924;5.320;2023-08-01T14:04:24;20.70;99.90
25192;DHT22;13143;50.924;5.320;2023-08-01T14:06:50;20.70;99.90
25192;DHT22;13143;50.924;5.320;2023-08-01T14:09:16;20.70;99.90
25192;DHT22;13143;50.924;5.320;2023-08-01T14:11:42;20.70;99.90
25192;DHT22;13143;50.924;5.320;2023-08-01T14:14:09;20.70;99.90
25192;DHT22;13143;50.924;5.320;2023-08-01T14:16:35;20.70;99.90
25192;DHT22;13143;50.924;5.320;2023-08-01T14:19:01;20.70;99.90
25192;DHT22;13143;50.924;5.320;2023-08-01T14:21:27;20.70;99.90
25192;DHT22;13143;50.924;5.320;2023-08-01T14:23:53;20.70;99.90
25192;DHT22;13143;50.924;5.320;2023-08-01T14:26:19;20.80;99.90
25192;DHT22;13143;50.924;5.320;2023-08-01T14:28:46;20.70;99.90
25192;DHT22;13143;50.924;5.320;2023-08-01T14:31:12;20.80;99.90
25192;DHT22;13143;50.924;5.320;2023-08-01T14:33:38;20.80;99.90
25192;DHT22;13143;50.924;5.320;2023-08-01T14:36:11;20.80;99.90
25192;DHT22;13143;50.924;5.320;2023-08-01T14:38:39;20.80;99.90
25192;DHT22;13143;50.924;5.320;2023-08-01T14:41:05;20.80;99.90
25192;DHT22;13143;50.924;5.320;2023-08-01T14:43:31;20.80;99.90
25192;DHT22;13143;50.924;5.320;2023-08-01T14:45:58;20.80;99.90
25192;DHT22;13143;50.924;5.320;2023-08-01T14:48:25;20.90;99.90
25192;DHT22;13143;50.924;5.320;2023-08-01T14:50:53;20.90;99.90
25192;DHT22;13143;50.924;5.320;2023-08-01T14:53:19;20.90;99.90
25192;DHT22;13143;50.924;5.320;2023-08-01T14:55:45;20.90;99.90
25192;DHT22;13143;50.924;5.320;2023-08-01T14:58:11;20.90;99.90
25192;DHT22;13143;50.924;5.320;2023-08-01T15:00:37;20.90;99.90
25192;DHT22;13143;50.924;5.320;2023-08-01T15:03:03;20.90;99.90
25192;DHT22;13143;50.924;5.320;2023-08-01T15:05:30;20.90;99.90
25192;DHT22;13143;50.924;5.320;2023-08-01T15:07:56;20.90;99.90
25192;DHT22;13143;50.924;5.320;2023-08-01T15:10:22;20.90;99.90
25192;DHT22;13143;50.924;5.320;2023-08-01T15:12:48;20.90;99.90
25192;DHT22;13143;50.924;5.320;2023-08-01T15:15:14;20.90;99.90
25192;DHT22;13143;50.924;5.320;2023-08-01T15:17:41;20.90;99.90
25192;DHT22;13143;50.924;5.320;2023-08-01T15:20:07;20.90;99.90
25192;DHT22;13143;50.924;5.320;2023-08-01T15:22:33;20.90;99.90
25192;DHT22;13143;50.924;5.320;2023-08-01T15:25:00;20.90;99.90
25192;DHT22;13143;50.924;5.320;2023-08-01T15:27:26;20.90;99.90
25192;DHT22;13143;50.924;5.320;2023-08-01T15:29:52;20.90;99.90